createdAt,value
2023-02-08T00:03:34.410Z,56.55
2023-02-08T00:08:26.194Z,57.49
2023-02-08T00:13:19.421Z,57.32
2023-02-08T00:18:11.320Z,58.01
2023-02-08T00:23:03.044Z,57.53
2023-02-08T00:27:54.702Z,57.75
2023-02-08T00:32:46.281Z,58.35
2023-02-08T00:37:37.955Z,58.01
2023-02-08T00:42:30.187Z,58.36
2023-02-08T00:47:21.983Z,59.05
2023-02-08T00:52:13.605Z,58.72
2023-02-08T00:57:05.249Z,59.45
2023-02-08T01:01:56.996Z,59.27
2023-02-08T01:06:48.642Z,59.24
2023-02-08T01:11:40.261Z,59.09
2023-02-08T01:16:34.095Z,59.79
2023-02-08T01:21:28.834Z,60.04
2023-02-08T01:26:22.475Z,59.71
2023-02-08T01:31:20.006Z,59.83
2023-02-08T01:36:12.281Z,60.34
2023-02-08T01:41:11.214Z,60.26
2023-02-08T01:46:02.858Z,61.38
2023-02-08T01:50:59.813Z,61.68
2023-02-08T01:55:57.647Z,61.44
2023-02-08T02:00:49.298Z,61.61
2023-02-08T02:05:48.706Z,62.02
2023-02-08T02:10:42.531Z,61.75
2023-02-08T02:15:35.289Z,61.52
2023-02-08T02:20:53.380Z,61.85
2023-02-08T02:26:03.815Z,62.03
2023-02-08T02:31:08.849Z,61.62
2023-02-08T02:36:07.391Z,62.44
2023-02-08T02:41:37.648Z,63.32
2023-02-08T02:46:43.750Z,63.59
2023-02-08T02:51:38.286Z,65.07
2023-02-08T02:56:43.063Z,65.22
2023-02-08T03:01:35.145Z,64.49
2023-02-08T03:06:36.474Z,64.53
2023-02-08T03:11:39.861Z,65.16
2023-02-08T03:17:16.558Z,65.86
2023-02-08T03:22:23.679Z,65.58
2023-02-08T03:27:27.487Z,66.28
2023-02-08T03:32:25.775Z,66.67
2023-02-08T03:37:25.844Z,65.65
2023-02-08T03:42:24.710Z,66.20
2023-02-08T03:47:22.145Z,65.93
2023-02-08T03:52:14.444Z,66.37
2023-02-08T03:57:15.751Z,66.35
2023-02-08T04:02:12.394Z,65.28
2023-02-08T04:07:04.904Z,65.99
2023-02-08T04:11:56.611Z,65.68
2023-02-08T04:16:48.223Z,65.74
2023-02-08T04:21:39.871Z,65.95
2023-02-08T04:26:31.584Z,66.28
2023-02-08T04:31:23.208Z,66.11
2023-02-08T04:36:14.976Z,66.21
2023-02-08T04:41:06.628Z,66.90
2023-02-08T04:45:58.296Z,65.01
2023-02-08T04:50:49.861Z,64.36
2023-02-08T04:55:41.762Z,63.43
2023-02-08T05:00:33.318Z,63.26
2023-02-08T05:05:28.046Z,61.75
2023-02-08T05:10:20.430Z,63.53
2023-02-08T05:15:12.025Z,64.27
2023-02-08T05:20:04.672Z,64.74
2023-02-08T05:24:56.280Z,65.06
2023-02-08T05:29:47.969Z,65.10
2023-02-08T05:34:39.699Z,65.02
2023-02-08T05:39:34.227Z,65.69
2023-02-08T05:44:25.939Z,65.98
2023-02-08T05:49:17.564Z,66.59
2023-02-08T05:54:09.176Z,67.19
2023-02-08T05:59:01.846Z,66.85
2023-02-08T06:03:54.171Z,67.24
2023-02-08T06:08:46.208Z,67.16
2023-02-08T06:13:39.013Z,66.39
2023-02-08T06:18:30.647Z,66.29
2023-02-08T06:23:23.436Z,66.61
2023-02-08T06:28:15.098Z,66.65
2023-02-08T06:33:06.720Z,66.57
2023-02-08T06:37:58.891Z,66.19
2023-02-08T06:42:50.751Z,66.11
2023-02-08T06:47:42.647Z,66.08
2023-02-08T06:52:34.315Z,66.27
2023-02-08T06:57:26.006Z,65.66
2023-02-08T07:02:20.447Z,65.80
2023-02-08T07:07:13.406Z,64.56
2023-02-08T07:12:05.421Z,64.38
2023-02-08T07:16:57.162Z,64.04
2023-02-08T07:21:48.760Z,63.39
2023-02-08T07:26:40.437Z,63.68
2023-02-08T07:31:32.171Z,64.25
2023-02-08T07:36:23.841Z,63.56
2023-02-08T07:41:15.729Z,63.01
2023-02-08T07:46:17.173Z,62.87
2023-02-08T07:51:10.154Z,61.81
2023-02-08T07:56:01.897Z,58.26
2023-02-08T08:00:53.480Z,51.04
2023-02-08T08:05:45.270Z,47.03
2023-02-08T08:10:37.159Z,45.15
2023-02-08T08:15:29.590Z,43.38
2023-02-08T08:20:21.454Z,42.20
2023-02-08T08:25:13.845Z,40.99
2023-02-08T08:30:14.275Z,39.33
2023-02-08T08:35:07.363Z,37.97
2023-02-08T08:39:58.955Z,39.07
2023-02-08T08:44:50.633Z,38.38
2023-02-08T08:49:43.792Z,38.57
2023-02-08T08:54:35.765Z,39.27
2023-02-08T08:59:27.853Z,37.23
2023-02-08T09:04:22.643Z,37.68
2023-02-08T09:09:14.421Z,38.98
2023-02-08T09:14:06.448Z,39.10
2023-02-08T09:19:02.100Z,38.21
2023-02-08T09:23:53.814Z,38.40
2023-02-08T09:28:45.943Z,38.32
2023-02-08T09:33:37.524Z,38.77
2023-02-08T09:38:29.349Z,39.11
2023-02-08T09:43:45.340Z,38.91
2023-02-08T09:48:40.347Z,39.79
2023-02-08T09:53:47.551Z,39.53
2023-02-08T09:59:00.832Z,39.59
2023-02-08T10:03:58.053Z,40.13
2023-02-08T10:08:52.414Z,40.06
2023-02-08T10:14:13.741Z,40.12
2023-02-08T10:19:32.538Z,40.86
2023-02-08T10:24:45.548Z,40.42
2023-02-08T10:29:54.620Z,40.73
2023-02-08T10:34:51.581Z,40.36
2023-02-08T10:39:43.410Z,40.35
2023-02-08T10:44:58.135Z,40.69
2023-02-08T10:49:58.060Z,40.17
2023-02-08T10:54:49.791Z,39.96
2023-02-08T11:00:22.415Z,37.38
2023-02-08T11:05:18.021Z,38.82
2023-02-08T11:10:19.087Z,38.41
2023-02-08T11:15:23.448Z,37.40
2023-02-08T11:20:28.804Z,37.00
2023-02-08T11:25:53.532Z,36.28
2023-02-08T11:30:56.069Z,36.03
2023-02-08T11:35:55.695Z,35.96
2023-02-08T11:40:47.320Z,35.56
2023-02-08T11:45:39.212Z,34.40
2023-02-08T11:50:34.026Z,34.89
2023-02-08T11:55:28.333Z,33.73
2023-02-08T12:00:26.305Z,32.96
2023-02-08T12:05:22.718Z,32.50
2023-02-08T12:10:39.564Z,32.09
2023-02-08T12:15:58.537Z,31.26
2023-02-08T12:21:25.392Z,31.82
2023-02-08T12:26:25.653Z,30.98
2023-02-08T12:31:28.120Z,31.24
2023-02-08T12:36:32.626Z,30.77
2023-02-08T12:41:46.490Z,29.75
2023-02-08T12:46:43.998Z,30.35
2023-02-08T12:51:41.571Z,30.32
2023-02-08T12:56:38.289Z,29.97
2023-02-08T13:01:40.927Z,28.71
2023-02-08T13:06:49.714Z,30.29
2023-02-08T13:11:57.867Z,29.22
2023-02-08T13:16:55.002Z,28.79
2023-02-08T13:21:46.856Z,28.06
2023-02-08T13:26:40.244Z,28.25
2023-02-08T13:31:41.736Z,28.56
2023-02-08T13:36:36.579Z,28.14
2023-02-08T13:41:29.920Z,29.25
2023-02-08T13:46:24.579Z,28.65
2023-02-08T13:51:31.612Z,28.26
2023-02-08T13:56:49.159Z,28.30
2023-02-08T14:02:13.057Z,28.84
2023-02-08T14:07:16.305Z,28.13
2023-02-08T14:12:19.027Z,28.72
2023-02-08T14:17:19.354Z,28.86
2023-02-08T14:22:10.801Z,27.97
2023-02-08T14:27:28.404Z,28.79
2023-02-08T14:32:25.064Z,28.22
2023-02-08T14:37:21.571Z,27.68
2023-02-08T14:42:14.250Z,27.47
2023-02-08T14:47:36.933Z,27.34
2023-02-08T14:52:29.948Z,28.28
2023-02-08T14:57:28.927Z,28.59
2023-02-08T15:02:23.381Z,27.98
2023-02-08T15:07:47.771Z,27.53
2023-02-08T15:12:40.698Z,27.58
2023-02-08T15:17:44.332Z,28.00
2023-02-08T15:22:38.428Z,28.41
2023-02-08T15:27:34.512Z,28.85
2023-02-08T15:32:28.540Z,29.30
2023-02-08T15:37:20.589Z,29.19
2023-02-08T15:42:18.031Z,29.31
2023-02-08T15:47:17.362Z,29.13
2023-02-08T15:52:16.870Z,29.42
2023-02-08T15:57:33.398Z,29.80
2023-02-08T16:02:31.032Z,29.03
2023-02-08T16:07:31.203Z,29.52
2023-02-08T16:12:24.924Z,29.59
2023-02-08T16:17:41.807Z,30.93
2023-02-08T16:22:33.559Z,31.08
2023-02-08T16:27:28.252Z,31.20
2023-02-08T16:32:22.925Z,32.45
2023-02-08T16:37:27.374Z,33.31
2023-02-08T16:42:33.924Z,33.69
2023-02-08T16:47:28.764Z,34.21
2023-02-08T16:52:20.754Z,34.34
2023-02-08T16:57:12.399Z,34.61
2023-02-08T17:02:09.453Z,35.46
2023-02-08T17:07:01.074Z,36.08
2023-02-08T17:11:52.703Z,36.62
2023-02-08T17:16:44.323Z,36.78
2023-02-08T17:21:36.106Z,36.81
2023-02-08T17:26:32.289Z,37.60
2023-02-08T17:31:24.193Z,37.96
2023-02-08T17:36:17.692Z,37.58
2023-02-08T17:41:18.480Z,37.57
2023-02-08T17:46:11.748Z,38.10
2023-02-08T17:51:08.834Z,38.23
2023-02-08T17:56:00.528Z,38.95
2023-02-08T18:00:52.152Z,39.47
2023-02-08T18:05:43.808Z,38.60
2023-02-08T18:10:35.440Z,38.91
2023-02-08T18:15:27.259Z,38.71
2023-02-08T18:20:18.987Z,39.83
2023-02-08T18:25:11.760Z,40.06
2023-02-08T18:30:03.925Z,40.34
2023-02-08T18:34:56.032Z,40.49
2023-02-08T18:39:48.442Z,41.57
2023-02-08T18:44:40.276Z,41.65
2023-02-08T18:49:32.172Z,41.68
2023-02-08T18:54:23.810Z,42.31
2023-02-08T18:59:15.402Z,42.09
2023-02-08T19:04:07.183Z,42.59
2023-02-08T19:09:01.659Z,43.00
2023-02-08T19:13:56.355Z,42.82
2023-02-08T19:18:48.754Z,43.05
2023-02-08T19:23:40.704Z,43.44
2023-02-08T19:28:33.814Z,43.13
2023-02-08T19:33:25.381Z,43.27
2023-02-08T19:38:18.897Z,44.37
2023-02-08T19:43:10.572Z,44.00
2023-02-08T19:48:02.152Z,44.92
2023-02-08T19:52:53.780Z,45.10
2023-02-08T19:57:45.474Z,44.91
2023-02-08T20:02:38.440Z,45.64
2023-02-08T20:07:30.079Z,45.93
2023-02-08T20:12:22.138Z,46.35
2023-02-08T20:17:13.875Z,47.24
2023-02-08T20:22:05.604Z,47.46
2023-02-08T20:26:57.563Z,47.63
2023-02-08T20:31:53.425Z,48.01
2023-02-08T20:36:57.373Z,47.84
2023-02-08T20:41:57.234Z,47.98
2023-02-08T20:46:48.834Z,48.98
2023-02-08T20:51:40.648Z,48.33
2023-02-08T20:56:35.483Z,48.21
2023-02-08T21:01:28.625Z,48.53
2023-02-08T21:06:26.485Z,49.23
2023-02-08T21:11:24.987Z,49.35
2023-02-08T21:16:17.981Z,48.60
2023-02-08T21:21:10.279Z,49.27
2023-02-08T21:26:03.573Z,48.79
2023-02-08T21:31:00.817Z,48.51
2023-02-08T21:35:52.928Z,48.95
2023-02-08T21:40:45.086Z,49.41
2023-02-08T21:45:37.367Z,48.92
2023-02-08T21:50:47.887Z,47.86
2023-02-08T21:55:45.264Z,48.40
2023-02-08T22:00:37.433Z,47.98
2023-02-08T22:05:29.428Z,47.61
2023-02-08T22:10:26.908Z,48.28
2023-02-08T22:15:21.106Z,47.74
2023-02-08T22:20:14.853Z,47.22
2023-02-08T22:25:07.409Z,47.61
2023-02-08T22:29:59.374Z,47.91
2023-02-08T22:34:51.263Z,48.19
2023-02-08T22:39:43.285Z,48.21
2023-02-08T22:44:36.338Z,49.27
2023-02-08T22:49:29.190Z,49.45
2023-02-08T22:54:21.079Z,49.59
2023-02-08T22:59:12.879Z,49.81
2023-02-08T23:04:05.832Z,49.77
2023-02-08T23:08:58.939Z,50.12
2023-02-08T23:13:50.885Z,50.54
2023-02-08T23:18:42.789Z,50.54
2023-02-08T23:23:34.770Z,50.78
2023-02-08T23:28:26.540Z,51.19
2023-02-08T23:33:18.366Z,50.95
2023-02-08T23:38:10.212Z,51.70
2023-02-08T23:43:01.998Z,51.40
2023-02-08T23:47:53.798Z,51.96
2023-02-08T23:52:45.481Z,52.03
2023-02-08T23:57:37.766Z,52.63
